sensor_id;sensor_type;location;lat;lon;timestamp;P1;durP1;ratioP1;P2;durP2;ratioP2
77262;SDS011;66373;52.334;4.806;2023-02-28T00:01:50;28.73;;;19.60;;
77262;SDS011;66373;52.334;4.806;2023-02-28T00:04:28;28.15;;;18.98;;
77262;SDS011;66373;52.334;4.806;2023-02-28T00:06:56;28.13;;;18.65;;
77262;SDS011;66373;52.334;4.806;2023-02-28T00:09:29;28.92;;;18.45;;
77262;SDS011;66373;52.334;4.806;2023-02-28T00:11:58;30.23;;;20.30;;
77262;SDS011;66373;52.334;4.806;2023-02-28T00:14:37;28.35;;;19.27;;
77262;SDS011;66373;52.334;4.806;2023-02-28T00:17:05;29.23;;;18.63;;
77262;SDS011;66373;52.334;4.806;2023-02-28T00:19:34;25.67;;;18.42;;
77262;SDS011;66373;52.334;4.806;2023-02-28T00:22:02;22.35;;;18.05;;
77262;SDS011;66373;52.334;4.806;2023-02-28T00:24:31;23.83;;;17.77;;
77262;SDS011;66373;52.334;4.806;2023-02-28T00:27:00;25.45;;;16.88;;
77262;SDS011;66373;52.334;4.806;2023-02-28T00:29:35;24.60;;;17.30;;
77262;SDS011;66373;52.334;4.806;2023-02-28T00:32:27;23.77;;;16.65;;
77262;SDS011;66373;52.334;4.806;2023-02-28T00:42:26;22.55;;;15.70;;
77262;SDS011;66373;52.334;4.806;2023-02-28T00:45:11;23.33;;;15.45;;
77262;SDS011;66373;52.334;4.806;2023-02-28T00:49:11;21.75;;;15.63;;
77262;SDS011;66373;52.334;4.806;2023-02-28T00:52:04;22.17;;;15.32;;
77262;SDS011;66373;52.334;4.806;2023-02-28T00:54:38;18.65;;;14.45;;
77262;SDS011;66373;52.334;4.806;2023-02-28T00:57:06;21.52;;;15.27;;
77262;SDS011;66373;52.334;4.806;2023-02-28T00:59:51;18.00;;;13.60;;
77262;SDS011;66373;52.334;4.806;2023-02-28T01:05:27;19.00;;;13.73;;
77262;SDS011;66373;52.334;4.806;2023-02-28T01:10:52;16.95;;;12.45;;
77262;SDS011;66373;52.334;4.806;2023-02-28T01:13:38;18.35;;;12.80;;
77262;SDS011;66373;52.334;4.806;2023-02-28T01:16:12;16.80;;;12.43;;
77262;SDS011;66373;52.334;4.806;2023-02-28T01:18:55;18.17;;;12.23;;
77262;SDS011;66373;52.334;4.806;2023-02-28T01:21:40;14.85;;;11.32;;
77262;SDS011;66373;52.334;4.806;2023-02-28T01:26:50;16.42;;;12.25;;
77262;SDS011;66373;52.334;4.806;2023-02-28T01:35:25;14.85;;;11.02;;
77262;SDS011;66373;52.334;4.806;2023-02-28T01:38:45;15.38;;;10.80;;
77262;SDS011;66373;52.334;4.806;2023-02-28T01:41:51;15.15;;;10.82;;
77262;SDS011;66373;52.334;4.806;2023-02-28T01:48:10;12.00;;;9.85;;
77262;SDS011;66373;52.334;4.806;2023-02-28T01:50:56;12.27;;;9.15;;
77262;SDS011;66373;52.334;4.806;2023-02-28T01:53:33;12.13;;;9.20;;
77262;SDS011;66373;52.334;4.806;2023-02-28T01:56:18;12.88;;;9.32;;
77262;SDS011;66373;52.334;4.806;2023-02-28T01:58:55;12.02;;;8.68;;
77262;SDS011;66373;52.334;4.806;2023-02-28T02:01:25;10.75;;;8.48;;
77262;SDS011;66373;52.334;4.806;2023-02-28T02:04:01;11.98;;;8.45;;
77262;SDS011;66373;52.334;4.806;2023-02-28T02:06:36;11.52;;;8.20;;
77262;SDS011;66373;52.334;4.806;2023-02-28T02:12:10;10.65;;;7.63;;
77262;SDS011;66373;52.334;4.806;2023-02-28T02:14:52;12.80;;;9.05;;
77262;SDS011;66373;52.334;4.806;2023-02-28T02:17:38;10.10;;;7.88;;
77262;SDS011;66373;52.334;4.806;2023-02-28T02:33:10;9.32;;;7.38;;
77262;SDS011;66373;52.334;4.806;2023-02-28T02:39:34;7.85;;;6.40;;
77262;SDS011;66373;52.334;4.806;2023-02-28T02:42:35;8.25;;;6.47;;
77262;SDS011;66373;52.334;4.806;2023-02-28T02:45:55;7.10;;;6.10;;
77262;SDS011;66373;52.334;4.806;2023-02-28T02:51:43;7.20;;;5.60;;
77262;SDS011;66373;52.334;4.806;2023-02-28T02:54:55;6.55;;;5.38;;
77262;SDS011;66373;52.334;4.806;2023-02-28T02:57:38;7.20;;;5.55;;
77262;SDS011;66373;52.334;4.806;2023-02-28T03:00:39;5.97;;;4.95;;
77262;SDS011;66373;52.334;4.806;2023-02-28T03:03:23;6.95;;;5.13;;
77262;SDS011;66373;52.334;4.806;2023-02-28T03:06:01;7.90;;;5.63;;
77262;SDS011;66373;52.334;4.806;2023-02-28T03:11:23;9.30;;;5.13;;
77262;SDS011;66373;52.334;4.806;2023-02-28T03:14:30;7.28;;;5.07;;
77262;SDS011;66373;52.334;4.806;2023-02-28T03:17:23;5.25;;;4.65;;
77262;SDS011;66373;52.334;4.806;2023-02-28T03:20:04;5.88;;;4.45;;
77262;SDS011;66373;52.334;4.806;2023-02-28T03:23:10;5.22;;;4.25;;
77262;SDS011;66373;52.334;4.806;2023-02-28T03:25:59;5.90;;;4.20;;
77262;SDS011;66373;52.334;4.806;2023-02-28T03:28:49;4.13;;;3.63;;
77262;SDS011;66373;52.334;4.806;2023-02-28T03:31:35;5.85;;;3.92;;
77262;SDS011;66373;52.334;4.806;2023-02-28T03:34:17;6.78;;;4.35;;
77262;SDS011;66373;52.334;4.806;2023-02-28T03:36:53;4.25;;;3.47;;
77262;SDS011;66373;52.334;4.806;2023-02-28T03:39:28;6.00;;;4.30;;
77262;SDS011;66373;52.334;4.806;2023-02-28T03:42:07;5.60;;;3.88;;
77262;SDS011;66373;52.334;4.806;2023-02-28T03:44:38;4.22;;;3.53;;
77262;SDS011;66373;52.334;4.806;2023-02-28T03:47:16;5.03;;;3.83;;
77262;SDS011;66373;52.334;4.806;2023-02-28T03:50:02;3.80;;;3.08;;
77262;SDS011;66373;52.334;4.806;2023-02-28T03:52:56;4.28;;;3.50;;
77262;SDS011;66373;52.334;4.806;2023-02-28T03:55:34;3.97;;;3.30;;
77262;SDS011;66373;52.334;4.806;2023-02-28T03:58:18;3.67;;;3.25;;
77262;SDS011;66373;52.334;4.806;2023-02-28T04:01:08;3.53;;;3.13;;
77262;SDS011;66373;52.334;4.806;2023-02-28T04:03:51;3.40;;;3.03;;
77262;SDS011;66373;52.334;4.806;2023-02-28T04:06:27;4.95;;;3.63;;
77262;SDS011;66373;52.334;4.806;2023-02-28T04:08:58;3.08;;;2.78;;
77262;SDS011;66373;52.334;4.806;2023-02-28T04:11:36;3.13;;;2.83;;
77262;SDS011;66373;52.334;4.806;2023-02-28T04:14:08;4.72;;;3.22;;
77262;SDS011;66373;52.334;4.806;2023-02-28T04:16:52;4.18;;;3.33;;
77262;SDS011;66373;52.334;4.806;2023-02-28T04:19:29;4.00;;;3.15;;
77262;SDS011;66373;52.334;4.806;2023-02-28T04:22:00;4.05;;;2.97;;
77262;SDS011;66373;52.334;4.806;2023-02-28T04:24:52;3.53;;;2.92;;
77262;SDS011;66373;52.334;4.806;2023-02-28T04:27:37;5.53;;;2.95;;
77262;SDS011;66373;52.334;4.806;2023-02-28T04:30:34;2.95;;;2.67;;
77262;SDS011;66373;52.334;4.806;2023-02-28T04:33:08;2.92;;;2.60;;
77262;SDS011;66373;52.334;4.806;2023-02-28T04:35:36;2.60;;;2.35;;
77262;SDS011;66373;52.334;4.806;2023-02-28T04:38:08;3.88;;;2.63;;
77262;SDS011;66373;52.334;4.806;2023-02-28T04:41:03;3.00;;;2.70;;
77262;SDS011;66373;52.334;4.806;2023-02-28T04:44:14;3.25;;;2.72;;
77262;SDS011;66373;52.334;4.806;2023-02-28T04:54:37;3.10;;;2.80;;
77262;SDS011;66373;52.334;4.806;2023-02-28T05:05:51;4.30;;;2.63;;
77262;SDS011;66373;52.334;4.806;2023-02-28T05:08:44;5.22;;;2.88;;
77262;SDS011;66373;52.334;4.806;2023-02-28T05:11:35;5.40;;;3.13;;
77262;SDS011;66373;52.334;4.806;2023-02-28T05:18:31;2.70;;;2.50;;
77262;SDS011;66373;52.334;4.806;2023-02-28T06:41:19;1.98;;;1.75;;
77262;SDS011;66373;52.334;4.806;2023-02-28T06:43:48;1.70;;;1.60;;
77262;SDS011;66373;52.334;4.806;2023-02-28T06:46:19;2.33;;;1.95;;
77262;SDS011;66373;52.334;4.806;2023-02-28T06:48:47;2.00;;;1.80;;
77262;SDS011;66373;52.334;4.806;2023-02-28T06:51:18;3.38;;;2.00;;
77262;SDS011;66373;52.334;4.806;2023-02-28T06:53:49;2.28;;;1.80;;
77262;SDS011;66373;52.334;4.806;2023-02-28T06:56:18;1.80;;;1.60;;
77262;SDS011;66373;52.334;4.806;2023-02-28T06:58:46;2.45;;;1.70;;
77262;SDS011;66373;52.334;4.806;2023-02-28T07:01:15;2.58;;;1.67;;
77262;SDS011;66373;52.334;4.806;2023-02-28T07:03:42;1.77;;;1.67;;
77262;SDS011;66373;52.334;4.806;2023-02-28T07:06:10;1.77;;;1.50;;
77262;SDS011;66373;52.334;4.806;2023-02-28T07:08:37;2.08;;;1.70;;
77262;SDS011;66373;52.334;4.806;2023-02-28T07:11:06;2.55;;;1.70;;
77262;SDS011;66373;52.334;4.806;2023-02-28T07:13:35;1.80;;;1.70;;
77262;SDS011;66373;52.334;4.806;2023-02-28T07:16:05;2.40;;;2.00;;
77262;SDS011;66373;52.334;4.806;2023-02-28T07:18:34;1.55;;;1.45;;
77262;SDS011;66373;52.334;4.806;2023-02-28T07:21:02;1.70;;;1.60;;
77262;SDS011;66373;52.334;4.806;2023-02-28T07:23:30;1.83;;;1.73;;
77262;SDS011;66373;52.334;4.806;2023-02-28T07:25:58;1.38;;;1.33;;
77262;SDS011;66373;52.334;4.806;2023-02-28T07:28:25;1.70;;;1.60;;
77262;SDS011;66373;52.334;4.806;2023-02-28T07:30:54;1.60;;;1.50;;
77262;SDS011;66373;52.334;4.806;2023-02-28T07:33:21;1.27;;;1.20;;
77262;SDS011;66373;52.334;4.806;2023-02-28T07:35:59;1.60;;;1.50;;
77262;SDS011;66373;52.334;4.806;2023-02-28T07:38:29;1.67;;;1.58;;
77262;SDS011;66373;52.334;4.806;2023-02-28T07:41:03;1.60;;;1.50;;
77262;SDS011;66373;52.334;4.806;2023-02-28T07:43:32;1.70;;;1.60;;
77262;SDS011;66373;52.334;4.806;2023-02-28T07:46:03;2.58;;;1.83;;
77262;SDS011;66373;52.334;4.806;2023-02-28T07:48:31;1.65;;;1.55;;
77262;SDS011;66373;52.334;4.806;2023-02-28T07:51:02;2.00;;;1.90;;
77262;SDS011;66373;52.334;4.806;2023-02-28T07:53:30;1.60;;;1.50;;
77262;SDS011;66373;52.334;4.806;2023-02-28T07:55:58;1.67;;;1.58;;
77262;SDS011;66373;52.334;4.806;2023-02-28T07:58:32;1.50;;;1.42;;
77262;SDS011;66373;52.334;4.806;2023-02-28T08:01:19;1.75;;;1.65;;
77262;SDS011;66373;52.334;4.806;2023-02-28T08:04:00;1.70;;;1.60;;
77262;SDS011;66373;52.334;4.806;2023-02-28T08:06:28;2.38;;;1.63;;
77262;SDS011;66373;52.334;4.806;2023-02-28T08:13:15;1.60;;;1.50;;
77262;SDS011;66373;52.334;4.806;2023-02-28T08:30:08;2.65;;;1.77;;
77262;SDS011;66373;52.334;4.806;2023-02-28T08:32:38;1.80;;;1.70;;
77262;SDS011;66373;52.334;4.806;2023-02-28T08:35:10;2.15;;;1.70;;
77262;SDS011;66373;52.334;4.806;2023-02-28T08:37:40;1.80;;;1.70;;
77262;SDS011;66373;52.334;4.806;2023-02-28T08:40:08;3.95;;;1.83;;
77262;SDS011;66373;52.334;4.806;2023-02-28T08:42:39;1.70;;;1.60;;
77262;SDS011;66373;52.334;4.806;2023-02-28T08:45:07;1.70;;;1.60;;
77262;SDS011;66373;52.334;4.806;2023-02-28T08:47:35;3.53;;;1.92;;
77262;SDS011;66373;52.334;4.806;2023-02-28T08:50:07;1.70;;;1.50;;
77262;SDS011;66373;52.334;4.806;2023-02-28T08:52:41;3.10;;;2.10;;
77262;SDS011;66373;52.334;4.806;2023-02-28T08:55:09;3.30;;;1.70;;
77262;SDS011;66373;52.334;4.806;2023-02-28T08:57:43;2.28;;;1.80;;
77262;SDS011;66373;52.334;4.806;2023-02-28T09:00:11;1.92;;;1.80;;
77262;SDS011;66373;52.334;4.806;2023-02-28T09:05:13;2.28;;;1.90;;
77262;SDS011;66373;52.334;4.806;2023-02-28T09:07:41;2.22;;;2.13;;
77262;SDS011;66373;52.334;4.806;2023-02-28T09:13:44;2.10;;;2.00;;
77262;SDS011;66373;52.334;4.806;2023-02-28T09:20:34;2.70;;;2.50;;
77262;SDS011;66373;52.334;4.806;2023-02-28T09:31:04;3.05;;;2.85;;
77262;SDS011;66373;52.334;4.806;2023-02-28T09:33:32;3.65;;;3.35;;
77262;SDS011;66373;52.334;4.806;2023-02-28T09:36:02;3.85;;;3.13;;
77262;SDS011;66373;52.334;4.806;2023-02-28T09:38:34;3.83;;;3.47;;
77262;SDS011;66373;52.334;4.806;2023-02-28T09:41:11;3.83;;;3.40;;
77262;SDS011;66373;52.334;4.806;2023-02-28T09:43:47;3.67;;;3.38;;
77262;SDS011;66373;52.334;4.806;2023-02-28T09:46:29;4.45;;;3.70;;
77262;SDS011;66373;52.334;4.806;2023-02-28T09:49:08;3.75;;;3.45;;
77262;SDS011;66373;52.334;4.806;2023-02-28T09:51:49;4.28;;;3.88;;
77262;SDS011;66373;52.334;4.806;2023-02-28T09:54:27;4.35;;;3.95;;
77262;SDS011;66373;52.334;4.806;2023-02-28T09:57:07;5.30;;;4.20;;
77262;SDS011;66373;52.334;4.806;2023-02-28T09:59:53;4.57;;;4.10;;
77262;SDS011;66373;52.334;4.806;2023-02-28T10:06:26;4.57;;;4.10;;
77262;SDS011;66373;52.334;4.806;2023-02-28T10:09:18;6.72;;;4.50;;
77262;SDS011;66373;52.334;4.806;2023-02-28T10:12:32;5.78;;;4.05;;
77262;SDS011;66373;52.334;4.806;2023-02-28T10:15:20;4.80;;;4.28;;
77262;SDS011;66373;52.334;4.806;2023-02-28T10:18:01;4.30;;;3.90;;
77262;SDS011;66373;52.334;4.806;2023-02-28T10:21:01;5.82;;;4.97;;
77262;SDS011;66373;52.334;4.806;2023-02-28T10:47:41;5.00;;;4.50;;
77262;SDS011;66373;52.334;4.806;2023-02-28T10:50:32;8.07;;;5.03;;
77262;SDS011;66373;52.334;4.806;2023-02-28T10:56:15;5.25;;;4.75;;
77262;SDS011;66373;52.334;4.806;2023-02-28T10:58:53;5.43;;;4.93;;
77262;SDS011;66373;52.334;4.806;2023-02-28T11:01:23;5.22;;;4.55;;
77262;SDS011;66373;52.334;4.806;2023-02-28T11:03:53;5.90;;;4.70;;
77262;SDS011;66373;52.334;4.806;2023-02-28T11:06:21;5.30;;;4.80;;
77262;SDS011;66373;52.334;4.806;2023-02-28T11:08:51;5.72;;;5.13;;
77262;SDS011;66373;52.334;4.806;2023-02-28T11:11:22;5.55;;;4.82;;
77262;SDS011;66373;52.334;4.806;2023-02-28T11:13:57;6.53;;;4.93;;
77262;SDS011;66373;52.334;4.806;2023-02-28T11:16:34;7.00;;;4.95;;
77262;SDS011;66373;52.334;4.806;2023-02-28T11:19:25;5.50;;;5.00;;
77262;SDS011;66373;52.334;4.806;2023-02-28T11:21:58;6.25;;;4.85;;
77262;SDS011;66373;52.334;4.806;2023-02-28T11:24:29;5.43;;;4.93;;
77262;SDS011;66373;52.334;4.806;2023-02-28T11:27:02;5.82;;;4.55;;
77262;SDS011;66373;52.334;4.806;2023-02-28T11:29:32;5.10;;;4.60;;
77262;SDS011;66373;52.334;4.806;2023-02-28T11:32:01;5.88;;;5.05;;
77262;SDS011;66373;52.334;4.806;2023-02-28T11:34:32;5.10;;;4.60;;
77262;SDS011;66373;52.334;4.806;2023-02-28T11:37:02;5.53;;;4.57;;
77262;SDS011;66373;52.334;4.806;2023-02-28T11:39:31;5.18;;;4.68;;
77262;SDS011;66373;52.334;4.806;2023-02-28T11:42:09;5.68;;;5.00;;
77262;SDS011;66373;52.334;4.806;2023-02-28T11:44:51;5.85;;;5.07;;
77262;SDS011;66373;52.334;4.806;2023-02-28T11:47:30;5.10;;;4.32;;
77262;SDS011;66373;52.334;4.806;2023-02-28T11:53:11;5.28;;;4.70;;
77262;SDS011;66373;52.334;4.806;2023-02-28T11:55:47;5.65;;;4.50;;
77262;SDS011;66373;52.334;4.806;2023-02-28T11:58:26;4.78;;;4.22;;
77262;SDS011;66373;52.334;4.806;2023-02-28T12:01:04;4.50;;;4.05;;
77262;SDS011;66373;52.334;4.806;2023-02-28T12:03:49;4.85;;;4.45;;
77262;SDS011;66373;52.334;4.806;2023-02-28T12:06:30;3.97;;;3.63;;
77262;SDS011;66373;52.334;4.806;2023-02-28T12:09:04;4.65;;;4.05;;
77262;SDS011;66373;52.334;4.806;2023-02-28T12:11:47;4.97;;;4.20;;
77262;SDS011;66373;52.334;4.806;2023-02-28T12:14:26;5.10;;;4.07;;
77262;SDS011;66373;52.334;4.806;2023-02-28T12:19:44;4.38;;;3.92;;
77262;SDS011;66373;52.334;4.806;2023-02-28T12:22:30;4.57;;;4.18;;
77262;SDS011;66373;52.334;4.806;2023-02-28T12:25:20;4.40;;;3.70;;
77262;SDS011;66373;52.334;4.806;2023-02-28T12:28:04;4.05;;;3.50;;
77262;SDS011;66373;52.334;4.806;2023-02-28T12:30:48;4.10;;;3.70;;
77262;SDS011;66373;52.334;4.806;2023-02-28T12:33:28;4.40;;;3.83;;
77262;SDS011;66373;52.334;4.806;2023-02-28T12:36:04;4.18;;;3.78;;
77262;SDS011;66373;52.334;4.806;2023-02-28T12:38:47;3.92;;;3.55;;
77262;SDS011;66373;52.334;4.806;2023-02-28T12:41:18;4.28;;;3.63;;
77262;SDS011;66373;52.334;4.806;2023-02-28T12:43:50;4.32;;;3.92;;
77262;SDS011;66373;52.334;4.806;2023-02-28T12:46:23;4.60;;;3.30;;
77262;SDS011;66373;52.334;4.806;2023-02-28T12:48:56;3.75;;;3.42;;
77262;SDS011;66373;52.334;4.806;2023-02-28T12:51:26;3.65;;;3.33;;
77262;SDS011;66373;52.334;4.806;2023-02-28T12:54:03;3.55;;;3.25;;
77262;SDS011;66373;52.334;4.806;2023-02-28T12:56:38;3.40;;;3.10;;
77262;SDS011;66373;52.334;4.806;2023-02-28T12:59:12;4.30;;;3.28;;
77262;SDS011;66373;52.334;4.806;2023-02-28T13:01:55;3.60;;;3.30;;
77262;SDS011;66373;52.334;4.806;2023-02-28T13:04:40;3.40;;;3.13;;
77262;SDS011;66373;52.334;4.806;2023-02-28T13:10:14;3.58;;;3.28;;
77262;SDS011;66373;52.334;4.806;2023-02-28T13:12:47;3.03;;;2.83;;
77262;SDS011;66373;52.334;4.806;2023-02-28T13:15:18;3.63;;;3.22;;
77262;SDS011;66373;52.334;4.806;2023-02-28T13:17:50;3.67;;;3.38;;
77262;SDS011;66373;52.334;4.806;2023-02-28T13:20:20;3.30;;;2.70;;
77262;SDS011;66373;52.334;4.806;2023-02-28T13:22:49;3.10;;;2.90;;
77262;SDS011;66373;52.334;4.806;2023-02-28T13:31:23;3.03;;;2.70;;
77262;SDS011;66373;52.334;4.806;2023-02-28T13:36:42;2.75;;;2.55;;
77262;SDS011;66373;52.334;4.806;2023-02-28T13:39:45;3.00;;;2.70;;
77262;SDS011;66373;52.334;4.806;2023-02-28T13:42:33;4.15;;;3.00;;
77262;SDS011;66373;52.334;4.806;2023-02-28T13:47:52;2.95;;;2.75;;
77262;SDS011;66373;52.334;4.806;2023-02-28T13:50:30;2.97;;;2.72;;
77262;SDS011;66373;52.334;4.806;2023-02-28T13:53:13;2.85;;;2.65;;
77262;SDS011;66373;52.334;4.806;2023-02-28T13:56:10;2.92;;;2.67;;
77262;SDS011;66373;52.334;4.806;2023-02-28T13:58:55;3.30;;;3.00;;
77262;SDS011;66373;52.334;4.806;2023-02-28T14:04:28;2.42;;;2.33;;
77262;SDS011;66373;52.334;4.806;2023-02-28T14:07:15;2.60;;;2.40;;
77262;SDS011;66373;52.334;4.806;2023-02-28T14:09:52;2.70;;;2.50;;
77262;SDS011;66373;52.334;4.806;2023-02-28T14:15:30;2.42;;;2.22;;
77262;SDS011;66373;52.334;4.806;2023-02-28T14:18:20;2.88;;;2.67;;
77262;SDS011;66373;52.334;4.806;2023-02-28T14:20:54;2.92;;;2.72;;
77262;SDS011;66373;52.334;4.806;2023-02-28T14:23:30;2.72;;;2.53;;
77262;SDS011;66373;52.334;4.806;2023-02-28T14:26:13;2.58;;;2.38;;
77262;SDS011;66373;52.334;4.806;2023-02-28T14:29:01;2.28;;;2.08;;
77262;SDS011;66373;52.334;4.806;2023-02-28T14:31:45;2.75;;;2.55;;
77262;SDS011;66373;52.334;4.806;2023-02-28T14:34:26;2.20;;;2.10;;
77262;SDS011;66373;52.334;4.806;2023-02-28T14:37:02;2.90;;;2.70;;
77262;SDS011;66373;52.334;4.806;2023-02-28T14:39:33;2.30;;;2.15;;
77262;SDS011;66373;52.334;4.806;2023-02-28T14:42:02;2.50;;;2.30;;
77262;SDS011;66373;52.334;4.806;2023-02-28T14:44:30;2.80;;;2.60;;
77262;SDS011;66373;52.334;4.806;2023-02-28T14:47:14;2.20;;;2.10;;
77262;SDS011;66373;52.334;4.806;2023-02-28T14:49:44;2.22;;;2.05;;
77262;SDS011;66373;52.334;4.806;2023-02-28T14:52:14;2.00;;;1.90;;
77262;SDS011;66373;52.334;4.806;2023-02-28T14:54:44;2.67;;;2.30;;
77262;SDS011;66373;52.334;4.806;2023-02-28T14:57:23;2.53;;;2.33;;
77262;SDS011;66373;52.334;4.806;2023-02-28T15:00:01;2.13;;;1.98;;
77262;SDS011;66373;52.334;4.806;2023-02-28T15:02:37;1.95;;;1.85;;
77262;SDS011;66373;52.334;4.806;2023-02-28T15:05:21;2.40;;;2.30;;
77262;SDS011;66373;52.334;4.806;2023-02-28T15:08:00;2.20;;;1.88;;
77262;SDS011;66373;52.334;4.806;2023-02-28T15:10:31;2.25;;;2.08;;
77262;SDS011;66373;52.334;4.806;2023-02-28T15:13:01;1.92;;;1.83;;
77262;SDS011;66373;52.334;4.806;2023-02-28T15:15:36;2.40;;;2.20;;
77262;SDS011;66373;52.334;4.806;2023-02-28T15:18:13;2.20;;;2.00;;
77262;SDS011;66373;52.334;4.806;2023-02-28T15:20:48;2.10;;;2.00;;
77262;SDS011;66373;52.334;4.806;2023-02-28T15:23:17;2.13;;;2.00;;
77262;SDS011;66373;52.334;4.806;2023-02-28T15:25:50;2.10;;;2.00;;
77262;SDS011;66373;52.334;4.806;2023-02-28T15:28:22;2.30;;;2.10;;
77262;SDS011;66373;52.334;4.806;2023-02-28T15:30:52;2.15;;;2.05;;
77262;SDS011;66373;52.334;4.806;2023-02-28T15:33:26;2.35;;;2.15;;
77262;SDS011;66373;52.334;4.806;2023-02-28T15:36:05;1.90;;;1.80;;
77262;SDS011;66373;52.334;4.806;2023-02-28T15:38:39;2.50;;;2.17;;
77262;SDS011;66373;52.334;4.806;2023-02-28T15:41:21;2.10;;;2.00;;
77262;SDS011;66373;52.334;4.806;2023-02-28T15:46:45;2.22;;;1.80;;
77262;SDS011;66373;52.334;4.806;2023-02-28T15:49:23;2.03;;;1.92;;
77262;SDS011;66373;52.334;4.806;2023-02-28T15:51:52;1.90;;;1.80;;
77262;SDS011;66373;52.334;4.806;2023-02-28T15:54:23;1.98;;;1.88;;
77262;SDS011;66373;52.334;4.806;2023-02-28T15:56:55;2.13;;;2.00;;
77262;SDS011;66373;52.334;4.806;2023-02-28T15:59:25;1.80;;;1.70;;
77262;SDS011;66373;52.334;4.806;2023-02-28T16:02:02;2.03;;;1.85;;
77262;SDS011;66373;52.334;4.806;2023-02-28T16:07:44;2.28;;;2.08;;
77262;SDS011;66373;52.334;4.806;2023-02-28T16:10:34;1.92;;;1.83;;
77262;SDS011;66373;52.334;4.806;2023-02-28T16:15:45;2.17;;;1.98;;
77262;SDS011;66373;52.334;4.806;2023-02-28T16:18:16;2.65;;;2.00;;
77262;SDS011;66373;52.334;4.806;2023-02-28T16:20:48;2.10;;;2.00;;
77262;SDS011;66373;52.334;4.806;2023-02-28T16:23:18;1.88;;;1.77;;
77262;SDS011;66373;52.334;4.806;2023-02-28T16:25:46;1.73;;;1.63;;
77262;SDS011;66373;52.334;4.806;2023-02-28T16:28:17;1.88;;;1.77;;
77262;SDS011;66373;52.334;4.806;2023-02-28T16:30:51;2.00;;;1.90;;
77262;SDS011;66373;52.334;4.806;2023-02-28T16:33:23;2.20;;;2.00;;
77262;SDS011;66373;52.334;4.806;2023-02-28T16:35:54;1.80;;;1.70;;
77262;SDS011;66373;52.334;4.806;2023-02-28T16:38:31;1.92;;;1.83;;
77262;SDS011;66373;52.334;4.806;2023-02-28T16:41:00;2.38;;;2.17;;
77262;SDS011;66373;52.334;4.806;2023-02-28T16:43:28;1.67;;;1.63;;
77262;SDS011;66373;52.334;4.806;2023-02-28T16:46:00;2.03;;;1.92;;
77262;SDS011;66373;52.334;4.806;2023-02-28T16:48:29;2.10;;;1.90;;
77262;SDS011;66373;52.334;4.806;2023-02-28T16:51:03;1.98;;;1.88;;
77262;SDS011;66373;52.334;4.806;2023-02-28T16:53:36;1.92;;;1.80;;
77262;SDS011;66373;52.334;4.806;2023-02-28T16:56:08;1.98;;;1.88;;
77262;SDS011;66373;52.334;4.806;2023-02-28T16:58:43;2.10;;;1.80;;
77262;SDS011;66373;52.334;4.806;2023-02-28T17:01:14;1.83;;;1.73;;
77262;SDS011;66373;52.334;4.806;2023-02-28T17:03:44;2.30;;;2.10;;
77262;SDS011;66373;52.334;4.806;2023-02-28T17:06:19;1.90;;;1.80;;
77262;SDS011;66373;52.334;4.806;2023-02-28T17:08:57;1.98;;;1.88;;
77262;SDS011;66373;52.334;4.806;2023-02-28T17:11:31;1.80;;;1.70;;
77262;SDS011;66373;52.334;4.806;2023-02-28T17:14:04;1.80;;;1.70;;
77262;SDS011;66373;52.334;4.806;2023-02-28T17:16:43;1.65;;;1.63;;
77262;SDS011;66373;52.334;4.806;2023-02-28T17:19:15;1.80;;;1.70;;
77262;SDS011;66373;52.334;4.806;2023-02-28T17:21:44;1.52;;;1.50;;
77262;SDS011;66373;52.334;4.806;2023-02-28T17:24:29;1.70;;;1.60;;
77262;SDS011;66373;52.334;4.806;2023-02-28T17:27:01;1.65;;;1.55;;
77262;SDS011;66373;52.334;4.806;2023-02-28T17:29:38;2.35;;;2.10;;
77262;SDS011;66373;52.334;4.806;2023-02-28T17:36:15;1.88;;;1.77;;
77262;SDS011;66373;52.334;4.806;2023-02-28T17:53:06;1.90;;;1.73;;
77262;SDS011;66373;52.334;4.806;2023-02-28T17:54:35;2.08;;;1.90;;
77262;SDS011;66373;52.334;4.806;2023-02-28T18:00:54;1.85;;;1.75;;
77262;SDS011;66373;52.334;4.806;2023-02-28T18:03:46;2.53;;;2.33;;
77262;SDS011;66373;52.334;4.806;2023-02-28T18:07:15;3.33;;;1.88;;
77262;SDS011;66373;52.334;4.806;2023-02-28T18:10:15;3.13;;;2.28;;
77262;SDS011;66373;52.334;4.806;2023-02-28T18:18:01;1.92;;;1.77;;
77262;SDS011;66373;52.334;4.806;2023-02-28T18:20:03;1.80;;;1.70;;
77262;SDS011;66373;52.334;4.806;2023-02-28T18:22:31;3.10;;;2.20;;
77262;SDS011;66373;52.334;4.806;2023-02-28T18:24:59;2.05;;;1.83;;
77262;SDS011;66373;52.334;4.806;2023-02-28T18:27:30;3.83;;;2.05;;
77262;SDS011;66373;52.334;4.806;2023-02-28T18:32:26;2.17;;;1.92;;
77262;SDS011;66373;52.334;4.806;2023-02-28T18:34:56;1.92;;;1.83;;
77262;SDS011;66373;52.334;4.806;2023-02-28T18:37:34;2.20;;;2.05;;
77262;SDS011;66373;52.334;4.806;2023-02-28T18:40:03;3.40;;;2.10;;
77262;SDS011;66373;52.334;4.806;2023-02-28T18:42:32;2.17;;;2.08;;
77262;SDS011;66373;52.334;4.806;2023-02-28T18:44:59;2.20;;;1.92;;
77262;SDS011;66373;52.334;4.806;2023-02-28T18:47:26;2.33;;;2.20;;
77262;SDS011;66373;52.334;4.806;2023-02-28T18:49:54;3.22;;;2.42;;
77262;SDS011;66373;52.334;4.806;2023-02-28T18:52:21;2.33;;;2.13;;
77262;SDS011;66373;52.334;4.806;2023-02-28T18:54:54;3.97;;;2.60;;
77262;SDS011;66373;52.334;4.806;2023-02-28T18:57:22;3.33;;;2.63;;
77262;SDS011;66373;52.334;4.806;2023-02-28T18:59:50;2.75;;;2.55;;
77262;SDS011;66373;52.334;4.806;2023-02-28T19:02:18;2.83;;;2.60;;
77262;SDS011;66373;52.334;4.806;2023-02-28T19:04:48;2.95;;;2.65;;
77262;SDS011;66373;52.334;4.806;2023-02-28T19:07:16;4.68;;;2.90;;
77262;SDS011;66373;52.334;4.806;2023-02-28T19:09:44;3.85;;;3.08;;
77262;SDS011;66373;52.334;4.806;2023-02-28T19:12:13;3.05;;;2.70;;
77262;SDS011;66373;52.334;4.806;2023-02-28T19:14:42;3.15;;;2.88;;
77262;SDS011;66373;52.334;4.806;2023-02-28T19:17:09;3.55;;;2.92;;
77262;SDS011;66373;52.334;4.806;2023-02-28T19:19:39;3.20;;;2.83;;
77262;SDS011;66373;52.334;4.806;2023-02-28T19:22:07;3.20;;;2.90;;
77262;SDS011;66373;52.334;4.806;2023-02-28T19:24:34;4.50;;;3.20;;
77262;SDS011;66373;52.334;4.806;2023-02-28T19:27:02;4.22;;;3.10;;
77262;SDS011;66373;52.334;4.806;2023-02-28T19:29:31;3.55;;;3.25;;
77262;SDS011;66373;52.334;4.806;2023-02-28T19:31:58;3.45;;;3.13;;
77262;SDS011;66373;52.334;4.806;2023-02-28T19:34:31;5.53;;;3.17;;
77262;SDS011;66373;52.334;4.806;2023-02-28T19:36:58;4.72;;;3.75;;
77262;SDS011;66373;52.334;4.806;2023-02-28T19:39:26;4.05;;;3.03;;
77262;SDS011;66373;52.334;4.806;2023-02-28T19:41:53;4.13;;;3.70;;
77262;SDS011;66373;52.334;4.806;2023-02-28T19:44:21;4.18;;;3.63;;
77262;SDS011;66373;52.334;4.806;2023-02-28T19:46:57;4.88;;;3.95;;
77262;SDS011;66373;52.334;4.806;2023-02-28T19:49:38;4.82;;;3.53;;
77262;SDS011;66373;52.334;4.806;2023-02-28T19:52:11;4.18;;;3.78;;
77262;SDS011;66373;52.334;4.806;2023-02-28T19:54:41;5.05;;;4.10;;
77262;SDS011;66373;52.334;4.806;2023-02-28T19:57:08;3.80;;;3.40;;
77262;SDS011;66373;52.334;4.806;2023-02-28T19:59:35;4.95;;;4.28;;
77262;SDS011;66373;52.334;4.806;2023-02-28T20:02:08;4.85;;;3.55;;
77262;SDS011;66373;52.334;4.806;2023-02-28T20:04:39;4.78;;;3.63;;
77262;SDS011;66373;52.334;4.806;2023-02-28T20:07:14;5.05;;;3.80;;
77262;SDS011;66373;52.334;4.806;2023-02-28T20:09:45;6.57;;;4.15;;
77262;SDS011;66373;52.334;4.806;2023-02-28T20:12:13;4.97;;;3.83;;
77262;SDS011;66373;52.334;4.806;2023-02-28T20:14:42;5.65;;;4.40;;
77262;SDS011;66373;52.334;4.806;2023-02-28T20:17:12;5.10;;;3.80;;
77262;SDS011;66373;52.334;4.806;2023-02-28T20:19:39;5.10;;;4.05;;
77262;SDS011;66373;52.334;4.806;2023-02-28T20:22:11;4.63;;;3.63;;
77262;SDS011;66373;52.334;4.806;2023-02-28T20:24:41;5.22;;;3.90;;